Time;durP1;ratioP1;P1;durP2;ratioP2;P2;SDS_P1;SDS_P2;PMS_P1;PMS_P2;Temp;Humidity;BMP_temperature;BMP_pressure;BME280_temperature;BME280_humidity;BME280_pressure;Samples;Min_cycle;Max_cycle;Signal;HPM_P1;HPM_P2
2021/12/02 00:01:45;;;;;;;3.23;1.60;;;7.40;1.00;;;;;;4437276;28;656501;-73
2021/12/02 00:04:33;;;;;;;3.43;1.60;;;7.40;1.00;;;;;;4415782;28;657271;-79
2021/12/02 00:07:23;;;;;;;4.33;2.10;;;7.40;1.00;;;;;;4423118;28;656795;-81
2021/12/02 00:10:11;;;;;;;3.87;2.20;;;7.40;1.00;;;;;;4432392;28;657198;-77
2021/12/02 00:12:59;;;;;;;2.80;1.57;;;7.40;1.00;;;;;;4443826;28;657113;-72
2021/12/02 00:15:51;;;;;;;2.93;1.50;;;7.30;1.00;;;;;;4416459;28;656416;-75
2021/12/02 00:21:50;;;;;;;2.80;1.57;;;7.30;1.00;;;;;;4422242;28;656179;-76
2021/12/02 00:24:40;;;;;;;6.67;2.20;;;7.30;1.00;;;;;;4390831;28;656989;-81
2021/12/02 00:27:29;;;;;;;3.40;1.33;;;7.40;1.00;;;;;;4410000;28;657450;-75
2021/12/02 00:30:17;;;;;;;4.47;1.50;;;7.30;1.00;;;;;;4425430;28;657164;-74
2021/12/02 00:33:04;;;;;;;3.33;1.73;;;7.40;1.00;;;;;;4441535;28;656926;-75
2021/12/02 00:35:52;;;;;;;1.90;1.10;;;7.40;1.00;;;;;;4422570;28;656419;-77
2021/12/02 00:38:41;;;;;;;4.20;1.85;;;7.40;1.00;;;;;;4444537;28;657417;-75
2021/12/02 00:41:30;;;;;;;3.63;1.77;;;7.40;1.00;;;;;;4416119;28;656747;-75
2021/12/02 00:44:19;;;;;;;1.90;1.20;;;7.50;1.00;;;;;;4426160;28;657204;-74
2021/12/02 00:47:08;;;;;;;3.63;1.77;;;7.40;1.00;;;;;;4426013;28;657159;-73
2021/12/02 00:49:55;;;;;;;3.13;1.50;;;7.40;1.00;;;;;;4421873;28;657031;-72
2021/12/02 00:52:43;;;;;;;2.37;1.47;;;7.50;1.00;;;;;;4439378;28;657010;-73
2021/12/02 00:55:31;;;;;;;3.97;1.80;;;7.50;1.00;;;;;;4427406;28;656728;-72
2021/12/02 00:58:22;;;;;;;6.17;1.40;;;7.50;1.00;;;;;;4446250;28;657396;-72
2021/12/02 01:01:11;;;;;;;2.77;1.67;;;7.50;1.00;;;;;;4406143;28;657032;-75
2021/12/02 01:03:59;;;;;;;2.97;1.73;;;7.50;1.00;;;;;;4445475;28;656439;-80
2021/12/02 01:06:47;;;;;;;1.70;1.33;;;7.50;1.00;;;;;;4417705;28;656377;-71
2021/12/02 01:09:34;;;;;;;1.93;1.40;;;7.60;1.00;;;;;;4447589;28;656640;-71
2021/12/02 01:12:22;;;;;;;1.87;1.40;;;7.60;1.00;;;;;;4425344;28;657515;-75
2021/12/02 01:15:11;;;;;;;1.83;1.13;;;7.60;1.00;;;;;;4449430;28;656471;-75
2021/12/02 01:17:59;;;;;;;1.73;1.10;;;7.70;1.00;;;;;;4426385;28;656629;-77
2021/12/02 01:20:48;;;;;;;3.17;1.60;;;7.70;1.00;;;;;;4422494;28;656521;-81
2021/12/02 01:23:36;;;;;;;2.83;1.50;;;7.70;1.00;;;;;;4422980;28;656254;-79
2021/12/02 01:26:23;;;;;;;2.00;1.40;;;7.60;1.00;;;;;;4441088;28;656459;-76
2021/12/02 01:29:11;;;;;;;3.27;1.40;;;7.60;1.00;;;;;;4422126;28;656778;-79
2021/12/02 01:32:04;;;;;;;2.57;1.50;;;7.60;1.00;;;;;;4445700;28;657434;-75
2021/12/02 01:34:52;;;;;;;2.05;1.20;;;7.60;1.00;;;;;;4388450;28;657494;-72
2021/12/02 01:37:40;;;;;;;2.93;1.47;;;7.60;1.00;;;;;;4437266;28;657051;-72
2021/12/02 01:40:28;;;;;;;3.37;1.77;;;7.60;1.00;;;;;;4422209;28;657379;-72
2021/12/02 01:43:17;;;;;;;2.70;1.40;;;7.60;1.00;;;;;;4416092;28;656638;-78
2021/12/02 01:46:04;;;;;;;1.77;1.23;;;7.50;1.00;;;;;;4438214;28;657258;-79
2021/12/02 01:49:01;;;;;;;4.47;1.60;;;7.50;1.00;;;;;;4425511;28;657018;-75
2021/12/02 01:51:49;;;;;;;3.83;1.90;;;7.40;1.00;;;;;;4418273;28;657096;-69
2021/12/02 01:54:37;;;;;;;4.33;1.87;;;7.30;1.00;;;;;;4415116;28;656650;-71
2021/12/02 01:57:33;;;;;;;2.80;1.60;;;7.20;1.00;;;;;;4449182;28;656643;-81
2021/12/02 02:00:21;;;;;;;2.53;1.53;;;7.20;1.00;;;;;;4410851;28;656981;-78
2021/12/02 02:03:09;;;;;;;3.53;1.80;;;7.20;1.00;;;;;;4444722;28;657431;-73
2021/12/02 02:05:59;;;;;;;4.45;1.70;;;7.20;1.00;;;;;;4421481;28;656173;-73
2021/12/02 02:08:47;;;;;;;4.23;1.63;;;7.10;1.00;;;;;;4425467;28;657066;-70
2021/12/02 02:11:35;;;;;;;2.67;1.40;;;7.10;1.00;;;;;;4449632;28;656225;-72
2021/12/02 02:14:23;;;;;;;3.22;1.80;;;7.00;1.00;;;;;;4424891;28;657348;-71
2021/12/02 02:17:16;;;;;;;3.50;1.80;;;7.10;1.00;;;;;;4427325;28;657078;-73
2021/12/02 02:20:07;;;;;;;3.07;1.63;;;7.00;1.00;;;;;;4414539;28;657372;-72
2021/12/02 02:22:56;;;;;;;1.83;1.17;;;7.00;1.00;;;;;;4420352;28;656824;-81
2021/12/02 02:25:45;;;;;;;2.60;1.43;;;7.00;1.00;;;;;;4421208;28;656460;-77
2021/12/02 02:28:33;;;;;;;4.13;1.77;;;7.00;1.00;;;;;;4417047;28;657010;-78
2021/12/02 02:31:21;;;;;;;2.80;1.80;;;7.10;1.00;;;;;;4425603;28;657158;-78
2021/12/02 02:34:09;;;;;;;2.70;1.00;;;7.10;1.00;;;;;;4443775;28;657856;-74
2021/12/02 02:37:00;;;;;;;2.87;1.57;;;7.10;1.00;;;;;;4422109;28;657424;-75
2021/12/02 02:39:49;;;;;;;2.55;1.58;;;7.10;1.00;;;;;;4418678;28;656670;-75
2021/12/02 02:42:37;;;;;;;3.47;1.73;;;7.10;1.00;;;;;;4415469;28;656600;-74
2021/12/02 02:45:25;;;;;;;3.50;1.80;;;7.10;1.00;;;;;;4441795;28;657495;-72
2021/12/02 02:48:13;;;;;;;2.77;1.80;;;7.10;1.00;;;;;;4423457;28;656752;-72
2021/12/02 02:51:01;;;;;;;2.13;1.27;;;7.10;1.00;;;;;;4432901;28;657016;-72
2021/12/02 02:53:51;;;;;;;3.03;1.90;;;7.10;1.00;;;;;;4441690;28;657828;-71
2021/12/02 02:56:45;;;;;;;2.33;1.73;;;7.10;1.00;;;;;;4409823;28;657085;-72
2021/12/02 02:59:40;;;;;;;3.40;1.90;;;7.10;1.00;;;;;;4396832;28;656751;-72
2021/12/02 03:02:32;;;;;;;3.20;1.73;;;7.10;1.00;;;;;;4389398;28;657669;-72
2021/12/02 03:05:26;;;;;;;5.23;2.00;;;7.10;1.00;;;;;;4415093;28;656737;-72
2021/12/02 03:08:19;;;;;;;4.33;1.87;;;7.00;1.00;;;;;;4415649;28;657211;-80
2021/12/02 03:11:09;;;;;;;4.63;2.17;;;7.10;1.00;;;;;;4395539;28;656718;-73
2021/12/02 03:14:07;;;;;;;3.87;2.30;;;7.00;1.00;;;;;;4426385;28;656520;-79
2021/12/02 03:16:53;;;;;;;4.50;2.00;;;7.10;1.00;;;;;;4415424;28;656147;-78
2021/12/02 03:19:41;;;;;;;6.67;2.10;;;7.10;1.00;;;;;;4418286;28;656556;-75
2021/12/02 03:22:30;;;;;;;6.63;1.60;;;7.10;1.00;;;;;;4445980;28;657459;-74
2021/12/02 03:25:17;;;;;;;5.30;1.73;;;7.10;1.00;;;;;;4411126;28;657349;-77
2021/12/02 03:28:05;;;;;;;4.40;2.27;;;7.10;1.00;;;;;;4444045;28;656813;-71
2021/12/02 03:30:54;;;;;;;4.07;1.97;;;7.10;1.00;;;;;;4423486;28;656875;-74
2021/12/02 03:33:42;;;;;;;3.97;1.93;;;7.10;1.00;;;;;;4417520;28;656413;-75
2021/12/02 03:36:29;;;;;;;5.40;2.37;;;7.20;1.00;;;;;;4439247;28;656727;-75
2021/12/02 03:39:17;;;;;;;6.20;2.33;;;7.20;1.00;;;;;;4409362;28;657991;-71
2021/12/02 03:42:06;;;;;;;2.37;1.63;;;7.20;1.00;;;;;;4443093;28;656568;-75
2021/12/02 03:44:53;;;;;;;4.83;2.10;;;7.10;1.00;;;;;;4415197;28;656942;-71
2021/12/02 03:47:42;;;;;;;3.30;2.07;;;7.10;1.00;;;;;;4413187;28;657150;-80
2021/12/02 03:50:30;;;;;;;4.73;2.13;;;7.20;1.00;;;;;;4438393;28;656394;-75
2021/12/02 03:53:18;;;;;;;4.43;2.13;;;7.20;1.00;;;;;;4419194;28;657064;-76
2021/12/02 03:56:07;;;;;;;3.23;1.83;;;7.20;1.00;;;;;;4430522;28;656851;-76
2021/12/02 03:58:55;;;;;;;3.80;2.20;;;7.10;1.00;;;;;;4446672;28;656482;-76
2021/12/02 04:01:43;;;;;;;3.72;2.03;;;7.10;1.00;;;;;;4422637;28;657820;-76
2021/12/02 04:04:32;;;;;;;4.27;2.10;;;7.00;1.00;;;;;;4423826;28;656403;-76
2021/12/02 04:07:23;;;;;;;5.17;1.83;;;6.90;1.00;;;;;;4433326;28;657187;-76
2021/12/02 04:10:11;;;;;;;2.60;1.33;;;7.00;1.00;;;;;;4397328;28;656549;-75
2021/12/02 04:13:06;;;;;;;4.27;1.93;;;7.00;1.00;;;;;;4441090;28;657304;-72
2021/12/02 04:15:59;;;;;;;3.50;1.97;;;7.00;1.00;;;;;;4419072;28;657265;-74
2021/12/02 04:18:47;;;;;;;4.57;2.20;;;7.00;1.00;;;;;;4389991;28;657630;-76
2021/12/02 04:21:36;;;;;;;2.43;1.73;;;7.00;1.00;;;;;;4443806;28;656955;-77
2021/12/02 04:24:24;;;;;;;2.77;1.30;;;7.00;1.00;;;;;;4414661;28;657853;-72
2021/12/02 04:27:11;;;;;;;3.47;1.80;;;7.00;1.00;;;;;;4419294;28;656550;-75
2021/12/02 04:29:59;;;;;;;5.27;1.60;;;7.10;1.00;;;;;;4430743;28;656803;-74
2021/12/02 04:32:47;;;;;;;3.73;1.77;;;7.10;1.00;;;;;;4415115;28;656572;-74
2021/12/02 04:35:34;;;;;;;3.47;1.87;;;7.10;1.00;;;;;;4438762;28;656723;-74
2021/12/02 04:38:24;;;;;;;3.83;1.50;;;7.10;1.00;;;;;;4423854;28;656833;-74
2021/12/02 04:41:13;;;;;;;1.97;1.30;;;7.10;1.00;;;;;;4411163;28;656346;-74
2021/12/02 04:44:01;;;;;;;4.20;1.83;;;7.20;1.00;;;;;;4420574;28;657394;-72
2021/12/02 04:46:50;;;;;;;4.93;1.70;;;7.20;1.00;;;;;;4443920;28;656601;-72
2021/12/02 04:49:38;;;;;;;2.87;1.67;;;7.20;1.00;;;;;;4418553;28;657433;-76
2021/12/02 04:52:26;;;;;;;2.87;1.80;;;7.10;1.00;;;;;;4425273;28;656576;-73
2021/12/02 04:55:15;;;;;;;3.37;1.60;;;7.20;1.00;;;;;;4446146;28;657479;-72
2021/12/02 04:58:02;;;;;;;2.10;1.27;;;7.20;1.00;;;;;;4423940;28;656327;-75
2021/12/02 05:00:51;;;;;;;2.13;1.43;;;7.20;1.00;;;;;;4430617;28;656471;-73
2021/12/02 05:03:39;;;;;;;3.03;1.33;;;7.30;1.00;;;;;;4438980;28;657432;-77
2021/12/02 05:06:27;;;;;;;2.70;1.87;;;7.30;1.00;;;;;;4419682;28;656552;-72
2021/12/02 05:09:14;;;;;;;2.30;1.10;;;7.30;1.00;;;;;;4441654;28;656485;-77
2021/12/02 05:12:04;;;;;;;2.23;1.37;;;7.40;1.00;;;;;;4418798;28;656669;-71
2021/12/02 05:14:52;;;;;;;2.90;1.77;;;7.30;1.00;;;;;;4417336;28;656640;-72
2021/12/02 05:17:40;;;;;;;1.50;1.13;;;7.40;1.00;;;;;;4439235;28;656523;-75
2021/12/02 05:20:27;;;;;;;3.43;1.27;;;7.40;1.00;;;;;;4417063;28;657949;-71
2021/12/02 05:23:15;;;;;;;2.73;1.80;;;7.40;1.00;;;;;;4445036;28;656320;-71
2021/12/02 05:26:03;;;;;;;2.97;1.20;;;7.40;1.00;;;;;;4421996;28;657898;-72
2021/12/02 05:28:52;;;;;;;2.00;1.33;;;7.30;1.00;;;;;;4427195;28;656578;-79
2021/12/02 05:31:40;;;;;;;3.15;1.73;;;7.30;1.00;;;;;;4441153;28;656696;-79
2021/12/02 05:34:28;;;;;;;4.18;1.90;;;7.30;1.00;;;;;;4420332;28;657799;-73
2021/12/02 05:37:16;;;;;;;2.43;1.53;;;7.20;1.00;;;;;;4436021;28;656464;-73
2021/12/02 05:40:03;;;;;;;3.97;1.50;;;7.20;1.00;;;;;;4439638;28;657231;-80
2021/12/02 05:42:51;;;;;;;1.73;0.90;;;7.20;1.00;;;;;;4420040;28;657380;-72
2021/12/02 05:45:40;;;;;;;3.67;2.20;;;7.20;1.00;;;;;;4441918;28;657934;-75
2021/12/02 05:48:28;;;;;;;2.67;1.40;;;7.20;1.00;;;;;;4420943;28;657371;-72
2021/12/02 05:51:16;;;;;;;3.97;1.90;;;7.20;1.00;;;;;;4417695;28;658535;-73
2021/12/02 05:54:03;;;;;;;5.40;1.93;;;7.10;1.00;;;;;;4449185;28;657482;-72
2021/12/02 05:56:51;;;;;;;4.77;1.43;;;7.10;1.00;;;;;;4419023;28;656604;-75
2021/12/02 05:59:39;;;;;;;3.10;1.80;;;7.00;1.00;;;;;;4436825;28;657241;-72
2021/12/02 06:02:28;;;;;;;4.03;1.97;;;6.90;1.00;;;;;;4427016;28;656876;-72
2021/12/02 06:05:19;;;;;;;4.00;1.88;;;6.80;1.00;;;;;;4430200;28;657836;-73
2021/12/02 06:08:07;;;;;;;2.40;1.47;;;6.80;1.00;;;;;;4421499;28;656603;-72
2021/12/02 06:10:54;;;;;;;3.97;1.90;;;6.80;1.00;;;;;;4438322;28;656642;-73
2021/12/02 06:13:42;;;;;;;2.97;1.80;;;6.70;1.00;;;;;;4400847;28;657177;-70
2021/12/02 06:16:30;;;;;;;3.87;1.97;;;6.70;1.00;;;;;;4422481;28;656004;-79
2021/12/02 06:19:19;;;;;;;7.73;2.20;;;6.70;1.00;;;;;;4407561;28;658844;-73
2021/12/02 06:22:53;;;;;;;4.17;2.00;;;6.70;1.00;;;;;;4407409;28;656523;-72
2021/12/02 06:25:47;;;;;;;2.57;1.43;;;6.70;1.00;;;;;;4394085;28;657002;-78
2021/12/02 06:28:35;;;;;;;3.20;1.70;;;6.60;1.00;;;;;;4399543;28;656310;-72
2021/12/02 06:31:23;;;;;;;4.93;2.22;;;6.60;1.00;;;;;;4412281;28;656675;-72
2021/12/02 06:34:11;;;;;;;3.97;1.47;;;6.50;1.00;;;;;;4412953;28;656573;-78
2021/12/02 06:37:00;;;;;;;5.73;2.50;;;6.50;1.00;;;;;;4431662;28;657291;-80
2021/12/02 06:39:48;;;;;;;3.93;1.87;;;6.50;1.00;;;;;;4407915;28;657489;-72
2021/12/02 06:42:36;;;;;;;4.77;1.93;;;6.50;1.00;;;;;;4413955;28;656844;-72
2021/12/02 06:45:23;;;;;;;4.40;1.90;;;6.50;1.00;;;;;;4432448;28;657470;-73
2021/12/02 06:48:11;;;;;;;4.93;2.33;;;6.40;1.00;;;;;;4410846;28;656786;-73
2021/12/02 06:50:58;;;;;;;5.57;2.23;;;6.40;1.00;;;;;;4427767;28;657159;-72
2021/12/02 06:53:49;;;;;;;5.23;2.27;;;6.40;1.00;;;;;;4401627;28;657444;-73
2021/12/02 06:56:37;;;;;;;3.93;2.10;;;6.50;1.00;;;;;;4402894;28;656611;-72
2021/12/02 06:59:24;;;;;;;3.37;1.63;;;6.50;1.00;;;;;;4421640;28;656984;-79
2021/12/02 07:02:12;;;;;;;3.93;1.87;;;6.50;1.00;;;;;;4404757;28;656593;-79
2021/12/02 07:05:01;;;;;;;4.27;1.87;;;6.60;1.00;;;;;;4425258;28;657241;-71
2021/12/02 07:07:49;;;;;;;5.57;2.03;;;6.70;1.00;;;;;;4400580;28;657228;-72
2021/12/02 07:10:39;;;;;;;3.13;1.47;;;6.70;1.00;;;;;;4401784;28;657314;-70
2021/12/02 07:13:26;;;;;;;5.63;1.93;;;6.70;1.00;;;;;;4418740;28;658855;-73
2021/12/02 07:16:15;;;;;;;3.87;2.10;;;6.60;1.00;;;;;;4438004;28;656380;-72
2021/12/02 07:19:04;;;;;;;4.97;1.77;;;6.60;1.00;;;;;;4416476;28;657425;-72
2021/12/02 07:21:51;;;;;;;4.93;1.73;;;6.70;1.00;;;;;;4422697;28;656354;-76
2021/12/02 07:24:39;;;;;;;4.93;1.80;;;6.70;1.00;;;;;;4435016;28;657633;-72
2021/12/02 07:27:28;;;;;;;8.47;1.97;;;6.70;1.00;;;;;;4423534;28;657462;-72
2021/12/02 07:30:16;;;;;;;4.75;2.28;;;6.70;1.00;;;;;;4424836;28;656682;-72
2021/12/02 07:33:04;;;;;;;6.20;2.10;;;6.70;1.00;;;;;;4445202;28;656763;-72
2021/12/02 07:35:51;;;;;;;4.40;2.03;;;6.70;1.00;;;;;;4415969;28;656276;-72
2021/12/02 07:38:39;;;;;;;4.77;1.97;;;6.70;1.00;;;;;;4440091;28;657726;-77
2021/12/02 07:41:27;;;;;;;5.97;2.00;;;6.80;1.00;;;;;;4420802;28;657439;-72
2021/12/02 07:44:16;;;;;;;8.03;2.80;;;6.80;1.00;;;;;;4446137;28;657093;-77
2021/12/02 07:47:04;;;;;;;5.33;2.67;;;6.80;1.00;;;;;;4419266;28;657427;-78
2021/12/02 07:49:52;;;;;;;4.47;2.27;;;6.90;1.00;;;;;;4421002;28;656739;-79
2021/12/02 07:52:43;;;;;;;4.23;2.00;;;6.90;1.00;;;;;;4437331;28;656441;-71
2021/12/02 07:55:31;;;;;;;5.80;2.63;;;7.00;1.00;;;;;;4393132;28;656844;-76
2021/12/02 07:58:19;;;;;;;5.80;2.53;;;7.00;1.00;;;;;;4438845;28;656975;-76
2021/12/02 08:01:08;;;;;;;5.93;2.80;;;7.10;1.00;;;;;;4423264;28;656892;-76
2021/12/02 08:03:56;;;;;;;5.67;3.17;;;7.10;1.00;;;;;;4421635;28;656551;-73
2021/12/02 08:06:43;;;;;;;5.10;3.10;;;7.20;1.00;;;;;;4443791;28;657401;-79
2021/12/02 08:09:31;;;;;;;5.57;3.00;;;7.20;1.00;;;;;;4421250;28;656996;-73
2021/12/02 08:12:19;;;;;;;7.57;3.17;;;7.20;1.00;;;;;;4439689;28;657114;-71
2021/12/02 08:15:08;;;;;;;5.73;2.83;;;7.20;1.00;;;;;;4422251;28;657037;-73
2021/12/02 08:17:58;;;;;;;7.17;3.10;;;7.10;1.00;;;;;;4422382;28;656677;-77
2021/12/02 08:20:46;;;;;;;4.23;2.27;;;7.10;1.00;;;;;;4425428;28;656787;-75
2021/12/02 08:23:33;;;;;;;6.30;2.57;;;7.10;1.00;;;;;;4450067;28;657401;-71
2021/12/02 08:26:21;;;;;;;2.57;1.33;;;7.10;1.00;;;;;;4426693;28;657302;-74
2021/12/02 08:29:09;;;;;;;3.78;2.25;;;7.10;1.00;;;;;;4442229;28;657755;-79
2021/12/02 08:31:56;;;;;;;8.57;2.30;;;7.20;1.00;;;;;;4416414;28;657205;-78
2021/12/02 08:34:46;;;;;;;5.93;2.57;;;7.20;1.00;;;;;;4441867;28;657696;-72
2021/12/02 08:37:36;;;;;;;5.67;2.57;;;7.10;1.00;;;;;;4420105;28;657471;-76
2021/12/02 08:40:30;;;;;;;5.73;2.37;;;7.10;1.00;;;;;;4420046;28;657386;-78
2021/12/02 08:43:18;;;;;;;4.70;2.50;;;7.10;1.00;;;;;;4414671;28;657507;-76
2021/12/02 08:46:06;;;;;;;9.90;2.90;;;7.10;1.00;;;;;;4422664;28;657390;-76
2021/12/02 08:48:54;;;;;;;3.17;1.60;;;7.20;1.00;;;;;;4440878;28;657586;-69
2021/12/02 08:51:44;;;;;;;4.57;2.30;;;7.20;1.00;;;;;;4414341;28;656849;-72
2021/12/02 08:54:31;;;;;;;3.63;2.00;;;7.20;1.00;;;;;;4416202;28;657042;-76
2021/12/02 08:57:19;;;;;;;10.13;2.83;;;7.30;1.00;;;;;;4447507;28;656295;-75
2021/12/02 09:00:09;;;;;;;3.20;1.83;;;7.30;1.00;;;;;;4426068;28;658005;-71
2021/12/02 09:02:56;;;;;;;5.63;1.60;;;7.30;1.00;;;;;;4423601;28;656604;-76
2021/12/02 09:05:44;;;;;;;4.77;2.27;;;7.40;1.00;;;;;;4437344;28;657116;-71
2021/12/02 09:08:37;;;;;;;6.37;2.40;;;7.40;1.00;;;;;;4425356;28;656408;-71
2021/12/02 09:11:24;;;;;;;3.30;1.93;;;7.40;1.00;;;;;;4420903;28;657060;-72
2021/12/02 09:14:12;;;;;;;5.33;2.20;;;7.30;1.00;;;;;;4421067;28;656688;-71
2021/12/02 09:16:59;;;;;;;6.73;1.87;;;7.30;1.00;;;;;;4444187;28;657158;-75
2021/12/02 09:19:48;;;;;;;4.07;1.87;;;7.30;1.00;;;;;;4415767;28;656493;-72
2021/12/02 09:22:36;;;;;;;4.20;2.10;;;7.30;1.00;;;;;;4431023;28;657184;-72
2021/12/02 09:25:25;;;;;;;4.13;2.00;;;7.30;1.00;;;;;;4439333;28;657067;-71
2021/12/02 09:28:13;;;;;;;6.03;2.30;;;7.30;1.00;;;;;;4412329;28;656625;-72
2021/12/02 09:31:01;;;;;;;4.20;2.47;;;7.40;1.00;;;;;;4429785;28;656813;-71
2021/12/02 09:33:48;;;;;;;5.63;2.30;;;7.40;1.00;;;;;;4438080;28;656861;-78
2021/12/02 09:36:37;;;;;;;5.07;2.10;;;7.30;1.00;;;;;;4430120;28;656786;-72
2021/12/02 09:39:29;;;;;;;4.93;2.53;;;7.30;1.00;;;;;;4441210;28;656968;-70
2021/12/02 09:42:18;;;;;;;4.27;2.40;;;7.10;1.00;;;;;;4420868;28;657063;-71
2021/12/02 09:45:07;;;;;;;5.10;2.80;;;7.20;1.00;;;;;;4424178;28;656885;-76
2021/12/02 09:47:55;;;;;;;5.23;2.43;;;7.20;1.00;;;;;;4444053;28;656558;-73
2021/12/02 09:50:52;;;;;;;2.63;1.80;;;7.30;1.00;;;;;;4414571;28;658098;-71
2021/12/02 09:53:51;;;;;;;5.47;2.10;;;7.40;1.00;;;;;;4435103;28;656455;-73
2021/12/02 09:56:41;;;;;;;4.30;1.90;;;7.50;1.00;;;;;;4410826;28;657264;-72
2021/12/02 09:59:34;;;;;;;4.97;2.47;;;7.70;1.00;;;;;;4418167;28;656752;-71
2021/12/02 10:02:23;;;;;;;7.37;2.43;;;7.90;1.00;;;;;;4418771;28;657121;-72
2021/12/02 10:05:13;;;;;;;4.67;2.20;;;8.20;1.00;;;;;;4417819;28;656748;-78
2021/12/02 10:08:05;;;;;;;5.17;2.67;;;8.20;99.90;;;;;;4422532;28;656569;-77
2021/12/02 10:10:55;;;;;;;3.43;2.07;;;8.30;99.90;;;;;;4406140;28;658880;-72
2021/12/02 10:13:48;;;;;;;6.37;2.00;;;8.30;99.90;;;;;;4396112;28;658519;-73
2021/12/02 10:16:41;;;;;;;3.90;1.87;;;8.00;99.90;;;;;;4385330;28;658635;-73
2021/12/02 10:19:29;;;;;;;7.70;2.00;;;7.90;99.90;;;;;;4407131;28;657867;-71
2021/12/02 10:22:22;;;;;;;5.80;2.00;;;7.70;99.90;;;;;;4401998;28;659079;-73
2021/12/02 10:25:10;;;;;;;3.47;1.77;;;7.60;99.90;;;;;;4403190;28;657202;-72
2021/12/02 10:28:05;;;;;;;2.20;1.60;;;7.50;99.90;;;;;;4392694;28;659166;-70
2021/12/02 10:30:54;;;;;;;2.13;1.53;;;7.40;99.90;;;;;;4373687;28;658467;-72
2021/12/02 10:33:45;;;;;;;5.80;2.35;;;7.30;99.90;;;;;;4398936;28;657981;-79
2021/12/02 10:36:34;;;;;;;4.83;1.50;;;7.30;99.90;;;;;;4401321;28;657783;-79
2021/12/02 10:39:22;;;;;;;3.20;1.57;;;7.20;1.00;;;;;;4401675;28;657540;-78
2021/12/02 10:42:11;;;;;;;5.20;2.10;;;7.10;1.00;;;;;;4424782;28;656544;-72
2021/12/02 10:45:02;;;;;;;6.40;2.90;;;7.10;1.00;;;;;;4425809;28;656773;-76
2021/12/02 10:47:49;;;;;;;4.37;2.17;;;7.10;1.00;;;;;;4396464;28;656373;-76
2021/12/02 10:50:40;;;;;;;3.67;1.77;;;7.10;1.00;;;;;;4408252;28;657763;-71
2021/12/02 10:53:27;;;;;;;4.70;2.20;;;7.20;1.00;;;;;;4404194;28;658457;-72
2021/12/02 10:56:17;;;;;;;4.60;2.13;;;7.20;1.00;;;;;;4424099;28;658020;-75
2021/12/02 10:59:33;;;;;;;5.23;1.63;;;7.20;1.00;;;;;;4419751;28;657266;-74
2021/12/02 11:02:23;;;;;;;2.00;1.40;;;7.20;99.90;;;;;;4386690;28;656537;-76
2021/12/02 11:05:19;;;;;;;5.13;2.03;;;7.20;99.90;;;;;;4412270;28;658034;-75
2021/12/02 11:08:09;;;;;;;5.20;2.43;;;7.20;99.90;;;;;;4373005;28;658002;-76
2021/12/02 11:10:57;;;;;;;4.67;2.40;;;7.20;99.90;;;;;;4407916;28;657669;-71
2021/12/02 11:13:49;;;;;;;7.77;2.43;;;7.10;99.90;;;;;;4438214;28;658859;-71
2021/12/02 11:16:37;;;;;;;7.00;2.63;;;7.10;99.90;;;;;;4389902;28;658151;-72
2021/12/02 11:19:25;;;;;;;4.57;2.40;;;7.00;1.00;;;;;;4436629;28;658165;-72
2021/12/02 11:22:14;;;;;;;11.27;4.10;;;7.10;1.00;;;;;;4416727;28;658078;-72
2021/12/02 11:25:04;;;;;;;3.50;2.07;;;7.10;1.00;;;;;;4417141;28;657997;-76
2021/12/02 11:27:52;;;;;;;4.63;2.10;;;7.20;99.90;;;;;;4417281;28;656876;-77
2021/12/02 11:30:40;;;;;;;4.57;1.97;;;7.20;99.90;;;;;;4442135;28;657233;-69
2021/12/02 11:33:30;;;;;;;4.90;2.43;;;7.20;99.90;;;;;;4418763;28;658894;-72
2021/12/02 11:36:19;;;;;;;5.60;2.67;;;7.10;1.00;;;;;;4414459;28;658368;-72
2021/12/02 11:39:08;;;;;;;8.57;3.20;;;7.20;99.90;;;;;;4418718;28;656731;-72
2021/12/02 11:41:57;;;;;;;7.90;2.92;;;7.20;1.00;;;;;;4427014;28;657380;-72
2021/12/02 11:44:46;;;;;;;6.57;2.77;;;7.30;1.00;;;;;;4443348;28;656408;-75
2021/12/02 11:47:34;;;;;;;4.60;2.00;;;7.30;99.90;;;;;;4437160;28;657413;-76
2021/12/02 11:50:23;;;;;;;10.07;2.60;;;7.30;99.90;;;;;;4413043;28;657977;-72
2021/12/02 11:53:11;;;;;;;5.83;2.40;;;7.40;99.90;;;;;;4418868;28;658519;-72
2021/12/02 11:56:00;;;;;;;6.27;2.33;;;7.30;99.90;;;;;;4438228;28;658783;-72
2021/12/02 11:58:49;;;;;;;6.63;2.87;;;7.30;99.90;;;;;;4417859;28;659501;-72
2021/12/02 12:01:39;;;;;;;7.13;2.93;;;7.20;99.90;;;;;;4411294;28;657772;-74
2021/12/02 12:04:27;;;;;;;7.90;3.13;;;7.20;1.00;;;;;;4414803;28;657621;-71
2021/12/02 12:07:15;;;;;;;10.07;3.10;;;7.20;1.00;;;;;;4439438;28;656603;-72
2021/12/02 12:10:28;;;;;;;4.82;2.60;;;7.10;1.00;;;;;;4409689;28;658243;-76
2021/12/02 12:13:19;;;;;;;5.40;2.40;;;7.00;1.00;;;;;;4382076;28;657532;-75
2021/12/02 12:16:08;;;;;;;6.43;2.80;;;7.00;1.00;;;;;;4402579;28;656188;-72
2021/12/02 12:19:26;;;;;;;7.93;2.47;;;7.00;1.00;;;;;;4398464;28;656555;-72
2021/12/02 12:22:24;;;;;;;4.83;2.57;;;7.00;1.00;;;;;;4401731;28;657181;-77
2021/12/02 12:25:12;;;;;;;4.70;2.33;;;7.00;1.00;;;;;;4403711;28;656738;-79
2021/12/02 12:28:02;;;;;;;6.57;2.27;;;7.00;99.90;;;;;;4421404;28;656387;-72
2021/12/02 12:30:49;;;;;;;5.90;2.70;;;7.00;99.90;;;;;;4424084;28;657905;-73
2021/12/02 12:33:41;;;;;;;8.73;2.70;;;7.00;99.90;;;;;;4411365;28;658086;-79
2021/12/02 12:36:35;;;;;;;5.23;2.87;;;7.10;99.90;;;;;;4408127;28;658198;-71
2021/12/02 12:39:24;;;;;;;5.93;2.67;;;7.00;99.90;;;;;;4400556;28;658555;-77
2021/12/02 12:42:22;;;;;;;6.72;2.97;;;7.00;99.90;;;;;;4407577;28;657667;-77
2021/12/02 12:45:10;;;;;;;9.33;2.70;;;7.10;99.90;;;;;;4413775;28;658738;-77
2021/12/02 12:47:59;;;;;;;8.53;3.83;;;7.00;1.00;;;;;;4415274;28;658956;-79
2021/12/02 12:50:48;;;;;;;9.85;3.90;;;7.00;1.00;;;;;;4420917;28;656813;-77
2021/12/02 12:53:37;;;;;;;5.43;2.97;;;7.10;1.00;;;;;;4416864;28;656689;-76
2021/12/02 12:56:33;;;;;;;5.10;2.70;;;7.10;1.00;;;;;;4441746;28;657086;-76
2021/12/02 12:59:21;;;;;;;6.13;2.70;;;7.10;1.00;;;;;;4407110;28;656418;-72
2021/12/02 13:02:08;;;;;;;8.60;3.33;;;7.10;1.00;;;;;;4443610;28;657542;-71
2021/12/02 13:04:57;;;;;;;8.97;2.93;;;7.00;1.00;;;;;;4421595;28;657036;-71
2021/12/02 13:07:51;;;;;;;8.77;2.57;;;7.00;1.00;;;;;;4437563;28;656531;-72
2021/12/02 13:10:52;;;;;;;6.63;3.03;;;7.00;1.00;;;;;;4416148;28;657495;-73
2021/12/02 13:13:41;;;;;;;8.33;3.40;;;6.90;1.00;;;;;;4418630;28;656895;-71
2021/12/02 13:16:35;;;;;;;8.97;3.80;;;6.90;1.00;;;;;;4411538;28;657067;-72
2021/12/02 13:19:24;;;;;;;11.57;3.67;;;6.90;1.00;;;;;;4420281;28;658207;-71
2021/12/02 13:22:12;;;;;;;5.47;3.07;;;6.80;1.00;;;;;;4420344;28;657691;-71
2021/12/02 13:25:06;;;;;;;7.73;3.00;;;6.90;1.00;;;;;;4425976;28;656832;-73
2021/12/02 13:27:54;;;;;;;6.90;2.90;;;6.80;1.00;;;;;;4414093;28;657580;-75
2021/12/02 13:30:46;;;;;;;6.90;3.50;;;6.80;1.00;;;;;;4408455;28;657293;-76
2021/12/02 13:33:39;;;;;;;6.55;3.25;;;6.70;1.00;;;;;;4414263;28;658008;-71
2021/12/02 13:36:38;;;;;;;7.20;3.10;;;6.70;1.00;;;;;;4420981;28;656602;-77
2021/12/02 13:39:27;;;;;;;7.80;3.47;;;6.70;1.00;;;;;;4387812;28;656741;-74
2021/12/02 13:42:17;;;;;;;8.13;3.70;;;6.70;1.00;;;;;;4419867;28;656526;-72
2021/12/02 13:45:06;;;;;;;8.47;4.20;;;6.60;1.00;;;;;;4423639;28;656751;-72
2021/12/02 13:48:05;;;;;;;12.27;4.23;;;6.60;1.00;;;;;;4397946;28;657766;-72
2021/12/02 13:50:53;;;;;;;7.97;3.80;;;6.50;1.00;;;;;;4382856;28;658030;-73
2021/12/02 13:53:45;;;;;;;7.73;3.83;;;6.50;1.00;;;;;;4407744;28;656527;-73
2021/12/02 13:56:33;;;;;;;7.47;3.93;;;6.50;1.00;;;;;;4403838;28;656946;-71
2021/12/02 13:59:25;;;;;;;8.95;4.45;;;6.40;1.00;;;;;;4404487;28;657557;-73
2021/12/02 14:02:19;;;;;;;8.37;3.97;;;6.40;1.00;;;;;;4395602;28;658071;-72
2021/12/02 14:05:08;;;;;;;9.40;4.33;;;6.50;1.00;;;;;;4386104;28;657169;-71
2021/12/02 14:07:56;;;;;;;7.90;4.67;;;6.50;1.00;;;;;;4415661;28;656383;-73
2021/12/02 14:10:44;;;;;;;8.90;4.33;;;6.40;1.00;;;;;;4435579;28;656853;-71
2021/12/02 14:13:33;;;;;;;10.83;5.07;;;6.40;1.00;;;;;;4430751;28;656602;-72
2021/12/02 14:16:22;;;;;;;9.83;4.30;;;6.30;1.00;;;;;;4428458;28;658083;-73
2021/12/02 14:19:11;;;;;;;6.97;4.40;;;6.30;1.00;;;;;;4449239;28;656530;-71
2021/12/02 14:21:59;;;;;;;8.93;4.70;;;6.10;1.00;;;;;;4451902;28;656970;-72
2021/12/02 14:24:46;;;;;;;13.77;4.40;;;6.10;1.00;;;;;;4429711;28;657196;-71
2021/12/02 14:27:34;;;;;;;9.03;4.17;;;6.00;1.00;;;;;;4442600;28;658627;-71
2021/12/02 14:30:22;;;;;;;8.32;3.80;;;5.90;1.00;;;;;;4412998;28;657379;-71
2021/12/02 14:33:11;;;;;;;8.97;4.63;;;5.90;1.00;;;;;;4431696;28;657032;-71
2021/12/02 14:36:00;;;;;;;8.50;3.50;;;5.80;1.00;;;;;;4424008;28;657635;-71
2021/12/02 14:38:50;;;;;;;8.47;3.67;;;5.70;1.00;;;;;;4425802;28;657593;-72
2021/12/02 14:41:40;;;;;;;9.33;4.27;;;5.70;1.00;;;;;;4421682;28;657787;-72
2021/12/02 14:44:29;;;;;;;7.37;3.73;;;5.50;1.00;;;;;;4425282;28;657813;-71
2021/12/02 14:47:16;;;;;;;7.03;4.17;;;5.40;1.00;;;;;;4429729;28;657127;-72
2021/12/02 14:50:11;;;;;;;8.77;4.70;;;5.40;1.00;;;;;;4436250;28;657484;-72
2021/12/02 14:52:59;;;;;;;8.40;4.27;;;5.40;1.00;;;;;;4419789;28;657341;-71
2021/12/02 14:55:47;;;;;;;11.13;4.87;;;5.30;1.00;;;;;;4423224;28;656756;-71